Dades meteomassalio
 
Diari Summary for Febrer 20, 2018 Units:  Metric    English   Both
« Previous Day
Next Day »
Diari Semanal Mensual Anual Personalitzat
  Actual: Maxima: Minima: Mijana:
Temperatura: -10.7 °C -17.8 °C -12.2 °C -11.7 °C
Rosada: -13.9 °C -17.8 °C -14.2 °C -13.9 °C
Humitat: 68 % Humidity % 67 % 76 %
Velocitat del vent: 38.8 km/h 0 km/h 20.9 km/h 46 km/h
Racha vent: 38.8 km/h 0 km/h - -
Vent:North - - NW
Pressio: 34442.4 hPa 0 hPa 34418.7 hPa -
Pluja: 0 mm      
Historical Graphs
 
 
Tabular Data for Febrer 20, 2018
Time Temperature Dew Point Pressure Wind Wind Speed Wind Gust Humidity Rainfall Rate (Hourly) solar Conditions
-17.8 °C -17.8 °C 0 hPa Calm     Humidity % 0 mm SolarRadiationWatts/m^2 W/m2 Conditions
00:00 -11.6 °C -14 °C 34476.3 hPa NW 32.8 km/h 32.8 km/h 75 % 0 mm 0.0 W/m2 CLR
00:05 -11.6 °C -14 °C 34476.3 hPa NW 32.8 km/h 32.8 km/h 75 % 0 mm 0.0 W/m2 CLR
00:06 -11.6 °C -14 °C 34462.7 hPa NNW 31.1 km/h 31.1 km/h 75 % 0 mm 0.0 W/m2 CLR
00:11 -11.6 °C -14 °C 34462.7 hPa NNW 32.8 km/h 32.8 km/h 75 % 0 mm 0.0 W/m2 CLR
00:16 -11.6 °C -14 °C 34476.3 hPa NW 41.7 km/h 41.7 km/h 75 % 0 mm 0.0 W/m2 CLR
00:21 -11.6 °C -14 °C 34476.3 hPa NW 32.8 km/h 32.8 km/h 75 % 0 mm 0.0 W/m2 CLR
00:26 -11.6 °C -14 °C 34476.3 hPa NNW 32.8 km/h 32.8 km/h 75 % 0 mm 0.0 W/m2 CLR
00:31 -11.6 °C -14 °C 34462.7 hPa NW 38.8 km/h 38.8 km/h 75 % 0 mm 0.0 W/m2 CLR
00:36 -11.6 °C -14 °C 34462.7 hPa NW 26.9 km/h 26.9 km/h 75 % 0 mm 0.0 W/m2 CLR
00:41 -11.6 °C -14 °C 34452.6 hPa NW 36.2 km/h 36.2 km/h 75 % 0 mm 0.0 W/m2 CLR
00:46 -11.6 °C -14 °C 34462.7 hPa NW 29.8 km/h 29.8 km/h 75 % 0 mm 0.0 W/m2 CLR
00:51 -11.6 °C -14 °C 34462.7 hPa NW 29.8 km/h 29.8 km/h 75 % 0 mm 0.0 W/m2 CLR
00:56 -11.6 °C -14 °C 34462.7 hPa NW 38.8 km/h 38.8 km/h 75 % 0 mm 0.0 W/m2 CLR
01:01 -11.6 °C -13.8 °C 34462.7 hPa NW 26.9 km/h 26.9 km/h 76 % 0 mm 0.0 W/m2 CLR
01:06 -11.6 °C -14 °C 34452.6 hPa WNW 29.8 km/h 29.8 km/h 75 % 0 mm 0.0 W/m2 CLR
01:11 -11.6 °C -14 °C 34452.6 hPa NW 44.7 km/h 44.7 km/h 75 % 0 mm 0.0 W/m2 CLR
01:16 -11.6 °C -13.8 °C 34452.6 hPa NW 35.7 km/h 35.7 km/h 76 % 0 mm 0.0 W/m2 CLR
01:17 -11.6 °C -13.8 °C 34452.6 hPa NW 23.8 km/h 23.8 km/h 76 % 0 mm 0.0 W/m2 CLR
01:22 -11.6 °C -13.8 °C 34452.6 hPa NW 29.8 km/h 29.8 km/h 76 % 0 mm 0.0 W/m2 CLR
01:27 -11.6 °C -14 °C 34452.6 hPa NW 35.7 km/h 35.7 km/h 75 % 0 mm 0.0 W/m2 CLR
01:32 -11.6 °C -13.8 °C 34452.6 hPa NW 41.7 km/h 41.7 km/h 76 % 0 mm 0.0 W/m2 CLR
01:37 -11.6 °C -13.8 °C 34452.6 hPa NNW 36.2 km/h 36.2 km/h 76 % 0 mm 0.0 W/m2 CLR
01:42 -11.6 °C -13.8 °C 34452.6 hPa NW 41.7 km/h 41.7 km/h 76 % 0 mm 0.0 W/m2 CLR
01:47 -11.6 °C -13.8 °C 34452.6 hPa NNW 35.7 km/h 35.7 km/h 76 % 0 mm 0.0 W/m2 CLR
01:52 -11.6 °C -13.8 °C 34452.6 hPa NW 44.7 km/h 44.7 km/h 76 % 0 mm 0.0 W/m2 CLR
01:57 -11.9 °C -14.2 °C 34442.4 hPa NNW 41.7 km/h 41.7 km/h 76 % 0 mm 0.0 W/m2 CLR
02:02 -11.9 °C -14.2 °C 34442.4 hPa NNW 44.7 km/h 44.7 km/h 76 % 0 mm 0.0 W/m2 CLR
02:07 -11.9 °C -14.2 °C 34442.4 hPa NW 31.1 km/h 31.1 km/h 76 % 0 mm 0.0 W/m2 CLR
02:12 -11.9 °C -14.2 °C 34442.4 hPa WNW 29.8 km/h 29.8 km/h 76 % 0 mm 0.0 W/m2 CLR
02:17 -11.9 °C -14.2 °C 34442.4 hPa NNW 38.8 km/h 38.8 km/h 76 % 0 mm 0.0 W/m2 CLR
02:22 -11.6 °C -13.8 °C 34442.4 hPa NW 46.7 km/h 46.7 km/h 76 % 0 mm 0.0 W/m2 CLR
02:27 -11.9 °C -14.2 °C 34442.4 hPa NW 35.7 km/h 35.7 km/h 76 % 0 mm 0.0 W/m2 CLR
02:32 -11.9 °C -14.2 °C 34442.4 hPa NW 20.9 km/h 20.9 km/h 76 % 0 mm 0.0 W/m2 CLR
02:37 -11.6 °C -13.8 °C 34442.4 hPa NW 38.8 km/h 38.8 km/h 76 % 0 mm 0.0 W/m2 CLR
02:42 -11.6 °C -13.8 °C 34442.4 hPa NW 35.7 km/h 35.7 km/h 76 % 0 mm 0.0 W/m2 CLR
02:47 -11.6 °C -13.8 °C 34442.4 hPa NNW 38.8 km/h 38.8 km/h 76 % 0 mm 0.0 W/m2 CLR
02:52 -11.6 °C -13.8 °C 34442.4 hPa NW 35.7 km/h 35.7 km/h 76 % 0 mm 0.0 W/m2 CLR
02:57 -11.9 °C -14.2 °C 34442.4 hPa NW 26.9 km/h 26.9 km/h 76 % 0 mm 0.0 W/m2 CLR
03:02 -11.9 °C -14.2 °C 34442.4 hPa NNW 47.6 km/h 47.6 km/h 76 % 0 mm 0.0 W/m2 CLR
03:07 -11.9 °C -14.2 °C 34442.4 hPa NW 26.9 km/h 26.9 km/h 76 % 0 mm 0.0 W/m2 CLR
03:12 -11.9 °C -14.2 °C 34442.4 hPa NW 29.8 km/h 29.8 km/h 76 % 0 mm 0.0 W/m2 CLR
03:17 -11.9 °C -14.2 °C 34442.4 hPa NW 29.8 km/h 29.8 km/h 76 % 0 mm 0.0 W/m2 CLR
03:22 -11.9 °C -14.2 °C 34442.4 hPa NW 50.7 km/h 50.7 km/h 76 % 0 mm 0.0 W/m2 CLR
03:27 -11.9 °C -14.1 °C 34442.4 hPa NW 53.6 km/h 53.6 km/h 77 % 0 mm 0.0 W/m2 CLR
03:32 -11.9 °C -14.1 °C 34428.8 hPa NW 35.7 km/h 35.7 km/h 77 % 0 mm 0.0 W/m2 CLR
03:37 -11.9 °C -14.1 °C 34428.8 hPa NW 47.6 km/h 47.6 km/h 77 % 0 mm 0.0 W/m2 CLR
03:42 -11.9 °C -14.1 °C 34428.8 hPa NW 46.7 km/h 46.7 km/h 77 % 0 mm 0.0 W/m2 CLR
03:47 -11.9 °C -14.1 °C 34428.8 hPa NNW 56.6 km/h 56.6 km/h 77 % 0 mm 0.0 W/m2 CLR
04:04 -11.9 °C -13.9 °C 34418.7 hPa North 54.4 km/h 54.4 km/h 78 % 0 mm 0.0 W/m2 CLR
04:09 -11.9 °C -13.9 °C 34418.7 hPa North 68.6 km/h 68.6 km/h 78 % 0 mm 0.0 W/m2 CLR
04:14 -11.9 °C -13.9 °C 34418.7 hPa NNW 51.8 km/h 51.8 km/h 78 % 0 mm 0.0 W/m2 CLR
04:19 -11.9 °C -13.8 °C 34418.7 hPa NW 65.5 km/h 65.5 km/h 79 % 0 mm 0.0 W/m2 CLR
04:24 -11.9 °C -13.8 °C 34418.7 hPa North 57 km/h 57 km/h 79 % 0 mm 0.0 W/m2 CLR
04:30 -11.9 °C -13.8 °C 34418.7 hPa NW 50.7 km/h 50.7 km/h 79 % 0 mm 0.0 W/m2 CLR
04:35 -11.9 °C -13.8 °C 34418.7 hPa NW 47.6 km/h 47.6 km/h 79 % 0 mm 0.0 W/m2 CLR
04:40 -11.9 °C -13.8 °C 34428.8 hPa North 50.7 km/h 50.7 km/h 79 % 0 mm 0.0 W/m2 CLR
04:45 -11.9 °C -13.8 °C 34418.7 hPa NNW 47.6 km/h 47.6 km/h 80 % 0 mm 0.0 W/m2 CLR
04:50 -11.9 °C -13.8 °C 34418.7 hPa NNW 20.9 km/h 20.9 km/h 80 % 0 mm 0.0 W/m2 CLR
04:55 -11.9 °C -13.8 °C 34418.7 hPa NW 53.6 km/h 53.6 km/h 80 % 0 mm 0.0 W/m2 CLR
05:00 -11.9 °C -13.8 °C 34418.7 hPa North 41.4 km/h 41.4 km/h 80 % 0 mm 0.0 W/m2 CLR
05:05 -11.9 °C -13.8 °C 34418.7 hPa NNW 44.7 km/h 44.7 km/h 80 % 0 mm 0.0 W/m2 CLR
05:10 -11.9 °C -13.8 °C 34418.7 hPa NNW 41.7 km/h 41.7 km/h 80 % 0 mm 0.0 W/m2 CLR
05:15 -12.2 °C -14.1 °C 34418.7 hPa NW 44.7 km/h 44.7 km/h 80 % 0 mm 0.0 W/m2 CLR
05:20 -12.2 °C -14.1 °C 34418.7 hPa NNW 41.4 km/h 41.4 km/h 80 % 0 mm 0.0 W/m2 CLR
05:25 -12.2 °C -13.9 °C 34418.7 hPa NW 41.7 km/h 41.7 km/h 81 % 0 mm 0.0 W/m2 CLR
05:30 -12.2 °C -13.9 °C 34418.7 hPa NNW 44.7 km/h 44.7 km/h 81 % 0 mm 0.0 W/m2 CLR
05:35 -12.2 °C -13.9 °C 34418.7 hPa NW 47.6 km/h 47.6 km/h 81 % 0 mm 0.0 W/m2 CLR
05:40 -12.2 °C -13.9 °C 34418.7 hPa NNW 44.7 km/h 44.7 km/h 81 % 0 mm 0.0 W/m2 CLR
05:45 -12.2 °C -13.9 °C 34418.7 hPa NW 44.1 km/h 44.1 km/h 81 % 0 mm 0.0 W/m2 CLR
05:50 -12.2 °C -14.1 °C 34428.8 hPa NW 44.7 km/h 44.7 km/h 80 % 0 mm 0.0 W/m2 CLR
05:55 -12.2 °C -14.1 °C 34428.8 hPa North 41.4 km/h 41.4 km/h 80 % 0 mm 0.0 W/m2 CLR
06:00 -12.2 °C -14.1 °C 34418.7 hPa NNW 56.6 km/h 56.6 km/h 80 % 0 mm 0.0 W/m2 CLR
06:05 -11.9 °C -13.8 °C 34428.8 hPa North 50.7 km/h 50.7 km/h 80 % 0 mm 0.0 W/m2 CLR
06:10 -12.2 °C -14.1 °C 34418.7 hPa NNW 53.6 km/h 53.6 km/h 80 % 0 mm 0.0 W/m2 CLR
06:15 -12.2 °C -14.1 °C 34418.7 hPa NNW 47.6 km/h 47.6 km/h 80 % 0 mm 0.0 W/m2 CLR
06:20 -12.2 °C -14.1 °C 34418.7 hPa North 44.7 km/h 44.7 km/h 80 % 0 mm 0.0 W/m2 CLR
06:25 -12.2 °C -13.9 °C 34418.7 hPa NW 44.7 km/h 44.7 km/h 81 % 0 mm 0.0 W/m2 CLR
06:30 -12.2 °C -13.9 °C 34418.7 hPa NW 38.8 km/h 38.8 km/h 81 % 0 mm 0.0 W/m2 CLR
06:35 -12.2 °C -13.9 °C 34418.7 hPa NW 35.7 km/h 35.7 km/h 81 % 0 mm 0.0 W/m2 CLR
06:40 -12.2 °C -13.9 °C 34418.7 hPa WNW 56.6 km/h 56.6 km/h 81 % 0 mm 0.0 W/m2 CLR
06:45 -12.2 °C -14.1 °C 34418.7 hPa North 29.8 km/h 29.8 km/h 80 % 0 mm 0.0 W/m2 CLR
06:50 -12.2 °C -13.9 °C 34418.7 hPa NW 41.7 km/h 41.7 km/h 81 % 0 mm 0.0 W/m2 CLR
06:55 -12.2 °C -13.9 °C 34418.7 hPa NW 41.7 km/h 41.7 km/h 81 % 0 mm 0.0 W/m2 CLR
07:00 -12.2 °C -13.9 °C 34418.7 hPa NW 47.6 km/h 47.6 km/h 81 % 0 mm 0.0 W/m2 CLR
07:05 -12.2 °C -13.9 °C 34418.7 hPa NW 50.7 km/h 50.7 km/h 81 % 0 mm 0.0 W/m2 CLR
07:10 -12.2 °C -13.9 °C 34418.7 hPa NNW 32.8 km/h 32.8 km/h 81 % 0 mm 0.0 W/m2 CLR
07:15 -12.2 °C -13.9 °C 34418.7 hPa NW 50.7 km/h 50.7 km/h 81 % 0 mm 0.0 W/m2 CLR
07:20 -12.2 °C -13.9 °C 34418.7 hPa NW 47.6 km/h 47.6 km/h 81 % 0 mm 0.0 W/m2 CLR
07:25 -12.2 °C -13.9 °C 34418.7 hPa NNW 49.2 km/h 49.2 km/h 81 % 0 mm 0.0 W/m2 CLR
07:30 -12.2 °C -13.9 °C 34418.7 hPa NNW 46.7 km/h 46.7 km/h 81 % 0 mm 0.0 W/m2 CLR
07:35 -12.2 °C -13.9 °C 34418.7 hPa NNW 53.6 km/h 53.6 km/h 81 % 0 mm 0.0 W/m2 CLR
07:40 -12.2 °C -13.9 °C 34418.7 hPa NW 53.6 km/h 53.6 km/h 81 % 0 mm 0.0 W/m2 OVC
07:45 -12.2 °C -13.9 °C 34418.7 hPa NNW 53.6 km/h 53.6 km/h 81 % 0 mm 5.0 W/m2 OVC
07:50 -12.2 °C -13.9 °C 34418.7 hPa NW 53.6 km/h 53.6 km/h 81 % 0 mm 9.0 W/m2 OVC
07:55 -12.2 °C -13.9 °C 34428.8 hPa NW 41.7 km/h 41.7 km/h 81 % 0 mm 16.0 W/m2 BKN
08:00 -12.2 °C -13.9 °C 34428.8 hPa NNW 38.8 km/h 38.8 km/h 81 % 0 mm 23.0 W/m2 BKN
08:05 -11.9 °C -13.8 °C 34428.8 hPa NNW 41.7 km/h 41.7 km/h 80 % 0 mm 28.0 W/m2 BKN
08:10 -11.9 °C -13.8 °C 34428.8 hPa NW 47.6 km/h 47.6 km/h 80 % 0 mm 33.0 W/m2 BKN
08:15 -11.9 °C -13.8 °C 34428.8 hPa NW 41.7 km/h 41.7 km/h 79 % 0 mm 37.0 W/m2 BKN
08:20 -11.9 °C -13.8 °C 34428.8 hPa NW 44.1 km/h 44.1 km/h 79 % 0 mm 37.0 W/m2 BKN
08:25 -11.9 °C -13.8 °C 34428.8 hPa NW 50.7 km/h 50.7 km/h 79 % 0 mm 35.0 W/m2 BKN
08:30 -11.9 °C -13.8 °C 34428.8 hPa NW 53.6 km/h 53.6 km/h 79 % 0 mm 44.0 W/m2 BKN
08:35 -11.9 °C -13.8 °C 34428.8 hPa WNW 44.7 km/h 44.7 km/h 79 % 0 mm 42.0 W/m2 BKN
08:40 -11.9 °C -13.9 °C 34428.8 hPa NNW 38.8 km/h 38.8 km/h 78 % 0 mm 46.0 W/m2 SCT
08:45 -11.9 °C -13.9 °C 34428.8 hPa WNW 50.7 km/h 50.7 km/h 78 % 0 mm 62.0 W/m2 SCT
08:50 -11.9 °C -13.9 °C 34428.8 hPa NW 49.2 km/h 49.2 km/h 78 % 0 mm 70.0 W/m2 SCT
08:55 -11.9 °C -13.9 °C 34428.8 hPa NW 59.5 km/h 59.5 km/h 78 % 0 mm 84.0 W/m2 FEW
09:00 -11.6 °C -13.8 °C 34442.4 hPa NNW 44.7 km/h 44.7 km/h 77 % 0 mm 109.0 W/m2 FEW
09:05 -11.6 °C -13.8 °C 34442.4 hPa NNW 44.7 km/h 44.7 km/h 77 % 0 mm 148.0 W/m2 CLR
09:10 -11.6 °C -13.8 °C 34442.4 hPa NW 47.6 km/h 47.6 km/h 77 % 0 mm 142.0 W/m2 CLR
09:15 -11.6 °C -13.8 °C 34442.4 hPa NNW 44.7 km/h 44.7 km/h 76 % 0 mm 169.0 W/m2 CLR
09:20 -11.3 °C -13.7 °C 34442.4 hPa NW 54.4 km/h 54.4 km/h 75 % 0 mm 272.0 W/m2 CLR
09:25 -11.3 °C -13.7 °C 34442.4 hPa NW 65.5 km/h 65.5 km/h 75 % 0 mm 141.0 W/m2 CLR
09:30 -11.3 °C -13.7 °C 34452.6 hPa NNW 62.6 km/h 62.6 km/h 75 % 0 mm 111.0 W/m2 CLR
09:35 -11.6 °C -14.1 °C 34452.6 hPa NW 38.8 km/h 38.8 km/h 74 % 0 mm 127.0 W/m2 CLR
09:41 -11.3 °C -13.8 °C 34452.6 hPa NW 50.7 km/h 50.7 km/h 74 % 0 mm 153.0 W/m2 CLR
09:45 -11.3 °C -13.8 °C 34452.6 hPa WNW 38.8 km/h 38.8 km/h 74 % 0 mm 158.0 W/m2 CLR
09:50 -11.3 °C -13.8 °C 34452.6 hPa NNW 44.7 km/h 44.7 km/h 74 % 0 mm 185.0 W/m2 CLR
09:56 -11.3 °C -13.9 °C 34452.6 hPa NNW 41.7 km/h 41.7 km/h 73 % 0 mm 246.0 W/m2 CLR
10:01 -11 °C -13.6 °C 34452.6 hPa NW 38.8 km/h 38.8 km/h 73 % 0 mm 209.0 W/m2 CLR
10:06 -11 °C -13.6 °C 34452.6 hPa NW 41.7 km/h 41.7 km/h 73 % 0 mm 204.0 W/m2 CLR
10:11 -11 °C -13.7 °C 34452.6 hPa NNW 83.4 km/h 83.4 km/h 72 % 0 mm 211.0 W/m2 CLR
10:16 -11 °C -13.6 °C 34452.6 hPa NNW 51.8 km/h 51.8 km/h 73 % 0 mm 346.0 W/m2 CLR
10:21 -10.7 °C -13.4 °C 34452.6 hPa North 57 km/h 57 km/h 72 % 0 mm 192.0 W/m2 CLR
10:26 -11 °C -13.7 °C 34452.6 hPa NNW 56.6 km/h 56.6 km/h 72 % 0 mm 195.0 W/m2 CLR
10:31 -11 °C -13.7 °C 34452.6 hPa North 68.6 km/h 68.6 km/h 72 % 0 mm 169.0 W/m2 CLR
10:36 -11 °C -13.7 °C 34452.6 hPa NNW 69.8 km/h 69.8 km/h 72 % 0 mm 135.0 W/m2 CLR
10:41 -11 °C -13.7 °C 34452.6 hPa NNW 57 km/h 57 km/h 72 % 0 mm 185.0 W/m2 CLR
10:46 -11 °C -13.7 °C 34452.6 hPa North 59.5 km/h 59.5 km/h 72 % 0 mm 172.0 W/m2 CLR
10:51 -11 °C -13.8 °C 34452.6 hPa NNW 68.6 km/h 68.6 km/h 71 % 0 mm 221.0 W/m2 CLR
10:56 -11 °C -13.8 °C 34452.6 hPa NW 50.7 km/h 50.7 km/h 71 % 0 mm 179.0 W/m2 CLR
11:01 -10.7 °C -13.7 °C 34452.6 hPa NNW 38.8 km/h 38.8 km/h 70 % 0 mm 190.0 W/m2 CLR
11:06 -10.7 °C -13.7 °C 34452.6 hPa NNW 44.7 km/h 44.7 km/h 70 % 0 mm 190.0 W/m2 CLR
11:11 -10.7 °C -13.8 °C 34462.7 hPa North 77.4 km/h 77.4 km/h 69 % 0 mm 206.0 W/m2 CLR
11:16 -10.7 °C -13.7 °C 34462.7 hPa NNE 68.6 km/h 68.6 km/h 70 % 0 mm 178.0 W/m2 CLR
11:21 -10.7 °C -13.8 °C 34452.6 hPa North 68.6 km/h 68.6 km/h 69 % 0 mm 255.0 W/m2 CLR
11:26 -10.7 °C -13.8 °C 34452.6 hPa NNW 68.6 km/h 68.6 km/h 69 % 0 mm 211.0 W/m2 CLR
11:31 -10.7 °C -13.9 °C 34462.7 hPa North 65.5 km/h 65.5 km/h 68 % 0 mm 272.0 W/m2 CLR
11:36 -10.7 °C -13.9 °C 34452.6 hPa NNW 68.6 km/h 68.6 km/h 68 % 0 mm 241.0 W/m2 CLR
11:41 -10.7 °C -13.9 °C 34452.6 hPa NNW 77.4 km/h 77.4 km/h 68 % 0 mm 227.0 W/m2 CLR
11:46 -10.7 °C -13.9 °C 34452.6 hPa North 74.5 km/h 74.5 km/h 68 % 0 mm 264.0 W/m2 CLR
11:51 -10.7 °C -13.9 °C 34452.6 hPa NNW 41.7 km/h 41.7 km/h 68 % 0 mm 272.0 W/m2 CLR
11:56 -10.7 °C -14 °C 34452.6 hPa NNW 68.6 km/h 68.6 km/h 67 % 0 mm 243.0 W/m2 CLR
12:01 -10.7 °C -14 °C 34442.4 hPa North 65.5 km/h 65.5 km/h 67 % 0 mm 258.0 W/m2 CLR
12:06 -10.7 °C -14 °C 34442.4 hPa NNW 86.4 km/h 86.4 km/h 67 % 0 mm 229.0 W/m2 CLR
12:11 -10.7 °C -13.9 °C 34442.4 hPa North 38.8 km/h 38.8 km/h 68 % 0 mm 253.0 W/m2 CLR
Lo Temps de Massalio
Compliments of Weather Underground - 768 kb